createdAt,value
2019-06-20T00:00:46.902Z,31.90
2019-06-20T00:03:17.224Z,30.43
2019-06-20T00:05:46.690Z,33.75
2019-06-20T00:08:16.196Z,33.78
2019-06-20T00:10:45.645Z,31.25
2019-06-20T00:13:15.080Z,38.02
2019-06-20T00:15:44.528Z,34.58
2019-06-20T00:18:13.969Z,33.00
2019-06-20T00:20:44.700Z,35.25
2019-06-20T00:23:14.166Z,36.23
2019-06-20T00:25:43.594Z,37.50
2019-06-20T00:28:13.037Z,35.23
2019-06-20T00:30:44.673Z,38.65
2019-06-20T00:33:14.093Z,39.85
2019-06-20T00:35:45.622Z,39.42
2019-06-20T00:38:15.978Z,39.65
2019-06-20T00:40:45.519Z,42.20
2019-06-20T00:43:17.770Z,44.77
2019-06-20T00:45:45.945Z,49.05
2019-06-20T00:48:16.371Z,44.38
2019-06-20T00:50:45.828Z,49.58
2019-06-20T00:53:15.202Z,49.08
2019-06-20T00:55:46.681Z,55.40
2019-06-20T00:58:18.029Z,55.88
2019-06-20T01:00:47.468Z,60.95
2019-06-20T01:03:17.856Z,57.67
2019-06-20T01:05:47.239Z,64.62
2019-06-20T01:08:16.681Z,61.08
2019-06-20T01:10:46.145Z,66.00
2019-06-20T01:13:32.600Z,64.42
2019-06-20T01:15:49.274Z,63.83
2019-06-20T01:18:18.736Z,71.28
2019-06-20T01:20:48.185Z,69.65
2019-06-20T01:23:18.618Z,68.67
2019-06-20T01:25:48.235Z,71.62
2019-06-20T01:28:17.834Z,68.55
2019-06-20T01:30:47.860Z,75.20
2019-06-20T01:33:17.354Z,71.05
2019-06-20T01:35:47.384Z,72.80
2019-06-20T01:38:16.860Z,77.20
2019-06-20T01:40:46.289Z,71.72
2019-06-20T01:43:15.745Z,68.07
2019-06-20T01:45:45.197Z,76.05
2019-06-20T01:48:14.807Z,76.45
2019-06-20T01:50:45.406Z,82.05
2019-06-20T01:53:16.028Z,81.35
2019-06-20T01:55:47.493Z,78.45
2019-06-20T01:58:16.930Z,85.25
2019-06-20T02:00:50.166Z,82.62
2019-06-20T02:03:21.036Z,91.92
2019-06-20T02:05:50.728Z,87.50
2019-06-20T02:08:20.533Z,88.67
2019-06-20T02:10:49.884Z,89.60
2019-06-20T02:13:19.345Z,88.72
2019-06-20T02:15:48.833Z,89.47
2019-06-20T02:18:19.073Z,92.85
2019-06-20T02:20:51.927Z,86.60
2019-06-20T02:23:22.621Z,89.60
2019-06-20T02:25:52.139Z,95.35
2019-06-20T02:28:22.912Z,94.00
2019-06-20T02:30:52.515Z,91.32
2019-06-20T02:33:23.847Z,94.85
2019-06-20T02:35:53.303Z,96.57
2019-06-20T02:38:22.705Z,100.92
2019-06-20T02:40:52.251Z,98.27
2019-06-20T02:43:23.128Z,101.10
2019-06-20T02:45:56.283Z,101.55
2019-06-20T02:48:26.621Z,105.20
2019-06-20T02:50:56.729Z,94.83
2019-06-20T02:53:27.643Z,98.85
2019-06-20T02:55:57.078Z,92.90
2019-06-20T02:58:26.540Z,97.37
2019-06-20T03:00:58.385Z,85.65
2019-06-20T03:03:29.296Z,90.30
2019-06-20T03:05:59.131Z,87.35
2019-06-20T03:08:29.570Z,81.57
2019-06-20T03:10:59.021Z,81.87
2019-06-20T03:13:28.529Z,87.57
2019-06-20T03:15:58.074Z,74.90
2019-06-20T03:18:29.248Z,74.12
2019-06-20T03:20:58.835Z,74.40
2019-06-20T03:23:30.285Z,68.75
2019-06-20T03:25:59.672Z,76.42
2019-06-20T03:28:29.141Z,78.10
2019-06-20T03:30:58.576Z,72.37
2019-06-20T03:33:28.035Z,68.02
2019-06-20T03:35:57.616Z,72.72
2019-06-20T03:38:27.069Z,67.87
2019-06-20T03:40:58.878Z,69.75
2019-06-20T03:43:28.379Z,67.27
2019-06-20T03:45:57.812Z,70.10
2019-06-20T03:48:27.280Z,64.45
2019-06-20T03:50:58.622Z,66.50
2019-06-20T03:53:29.043Z,70.52
2019-06-20T03:55:59.404Z,61.37
2019-06-20T03:58:29.144Z,69.00
2019-06-20T04:00:58.658Z,68.37
2019-06-20T04:03:29.292Z,73.33
2019-06-20T04:05:58.756Z,69.05
2019-06-20T04:08:28.150Z,63.50
2019-06-20T04:10:57.592Z,64.60
2019-06-20T04:13:27.049Z,79.30
2019-06-20T04:15:57.425Z,77.15
2019-06-20T04:18:27.940Z,81.35
2019-06-20T04:20:57.394Z,77.30
2019-06-20T04:23:26.816Z,76.90
2019-06-20T04:25:56.579Z,74.70
2019-06-20T04:28:27.622Z,78.37
2019-06-20T04:30:58.348Z,75.55
2019-06-20T04:33:31.613Z,76.17
2019-06-20T04:36:01.211Z,69.10
2019-06-20T04:38:32.593Z,66.65
2019-06-20T04:41:02.091Z,72.55
2019-06-20T04:43:34.505Z,67.75
2019-06-20T04:46:08.701Z,65.25
2019-06-20T04:48:38.131Z,67.80
2019-06-20T04:51:08.635Z,60.92
2019-06-20T04:53:39.014Z,62.30
2019-06-20T04:56:11.011Z,63.00
2019-06-20T04:58:40.506Z,64.80
2019-06-20T05:01:14.421Z,57.27
2019-06-20T05:03:44.048Z,63.15
2019-06-20T05:06:14.471Z,52.98
2019-06-20T05:08:44.003Z,49.10
2019-06-20T05:11:13.458Z,53.68
2019-06-20T05:13:42.934Z,59.75
2019-06-20T05:16:13.389Z,54.18
2019-06-20T05:18:47.062Z,49.90
2019-06-20T05:21:21.609Z,49.15
2019-06-20T05:23:50.990Z,50.35
2019-06-20T05:26:25.870Z,51.80
2019-06-20T05:28:59.785Z,47.55
2019-06-20T05:31:31.191Z,42.70
2019-06-20T05:34:04.764Z,44.08
2019-06-20T05:36:37.500Z,46.05
2019-06-20T05:39:07.571Z,48.42
2019-06-20T05:41:37.192Z,41.95
2019-06-20T05:44:09.927Z,44.95
2019-06-20T05:46:40.864Z,46.75
2019-06-20T05:49:11.200Z,42.83
2019-06-20T05:51:40.641Z,42.48
2019-06-20T05:54:11.014Z,42.65
2019-06-20T05:56:41.459Z,40.45
2019-06-20T05:59:12.516Z,41.83
2019-06-20T06:01:44.337Z,45.12
2019-06-20T06:04:15.371Z,45.83
2019-06-20T06:06:44.809Z,50.35
2019-06-20T06:09:15.526Z,52.78
2019-06-20T06:11:45.000Z,49.95
2019-06-20T06:14:14.461Z,47.65
2019-06-20T06:16:45.748Z,42.95
2019-06-20T06:19:15.255Z,41.80
2019-06-20T06:21:45.675Z,48.63
2019-06-20T06:24:16.128Z,46.20
2019-06-20T06:26:45.575Z,46.20
2019-06-20T06:29:15.050Z,44.23
2019-06-20T06:31:46.584Z,36.83
2019-06-20T06:34:16.037Z,42.45
2019-06-20T06:36:46.548Z,41.53
2019-06-20T06:39:16.039Z,44.67
2019-06-20T06:41:45.505Z,38.78
2019-06-20T06:44:15.901Z,38.88
2019-06-20T06:46:52.990Z,38.33
2019-06-20T06:49:16.550Z,34.60
2019-06-20T06:51:46.102Z,30.90
2019-06-20T06:54:17.174Z,28.67
2019-06-20T06:56:46.679Z,29.52
2019-06-20T06:59:17.111Z,31.70
2019-06-20T07:01:46.582Z,30.57
2019-06-20T07:04:16.041Z,28.32
2019-06-20T07:06:46.783Z,28.87
2019-06-20T07:09:16.316Z,24.82
2019-06-20T07:11:45.793Z,26.23
2019-06-20T07:14:15.356Z,21.70
2019-06-20T07:16:59.438Z,21.82
2019-06-20T07:19:18.947Z,20.17
2019-06-20T07:21:50.194Z,16.67
2019-06-20T07:24:21.203Z,17.67
2019-06-20T07:26:50.632Z,15.80
2019-06-20T07:29:20.073Z,17.42
2019-06-20T07:31:49.855Z,14.03
2019-06-20T07:34:20.330Z,17.42
2019-06-20T07:36:49.806Z,16.77
2019-06-20T07:39:20.204Z,16.05
2019-06-20T07:41:49.709Z,16.17
2019-06-20T07:44:21.108Z,15.30
2019-06-20T07:46:50.566Z,17.52
2019-06-20T07:49:26.247Z,15.45
2019-06-20T07:51:51.957Z,18.52
2019-06-20T07:54:21.503Z,16.52
2019-06-20T07:56:51.911Z,13.03
2019-06-20T07:59:21.587Z,14.45
2019-06-20T08:01:51.107Z,16.45
2019-06-20T08:04:21.699Z,15.18
2019-06-20T08:06:52.776Z,12.43
2019-06-20T08:09:22.894Z,17.12
2019-06-20T08:11:55.017Z,13.58
2019-06-20T08:14:26.146Z,15.60
2019-06-20T08:16:55.890Z,13.72
2019-06-20T08:19:25.282Z,14.53
2019-06-20T08:21:56.791Z,14.18
2019-06-20T08:24:27.237Z,14.83
2019-06-20T08:26:58.742Z,14.18
2019-06-20T08:29:29.650Z,16.97
2019-06-20T08:32:00.742Z,14.55
2019-06-20T08:34:30.708Z,17.40
2019-06-20T08:37:00.640Z,13.10
2019-06-20T08:39:31.235Z,14.38
2019-06-20T08:42:04.335Z,15.80
2019-06-20T08:44:34.066Z,15.45
2019-06-20T08:47:03.886Z,15.48
2019-06-20T08:49:33.635Z,15.10
2019-06-20T08:52:03.520Z,19.57
2019-06-20T08:54:33.926Z,14.70
2019-06-20T08:57:04.161Z,19.02
2019-06-20T08:59:34.974Z,12.43
2019-06-20T09:04:35.557Z,15.30
2019-06-20T09:09:34.665Z,14.58
2019-06-20T09:12:05.128Z,16.93
2019-06-20T09:14:34.740Z,10.10
2019-06-20T09:17:04.359Z,7.70
2019-06-20T09:19:33.791Z,8.65
2019-06-20T09:22:05.036Z,8.78
2019-06-20T09:24:34.545Z,11.05
2019-06-20T09:27:04.288Z,9.38
2019-06-20T09:29:41.584Z,11.12
2019-06-20T09:32:05.018Z,7.55
2019-06-20T09:34:36.159Z,9.30
2019-06-20T09:37:05.615Z,7.87
2019-06-20T09:39:36.333Z,6.40
2019-06-20T09:42:05.828Z,6.42
2019-06-20T09:44:35.190Z,6.20
2019-06-20T09:47:04.989Z,5.30
2019-06-20T09:49:34.427Z,7.87
2019-06-20T09:52:05.801Z,4.80
2019-06-20T09:54:35.212Z,7.20
2019-06-20T09:57:05.748Z,13.93
2019-06-20T09:59:35.194Z,12.35
2019-06-20T10:02:04.768Z,7.55
2019-06-20T10:04:34.264Z,7.35
2019-06-20T10:07:03.778Z,8.08
2019-06-20T10:09:33.241Z,8.40
2019-06-20T10:12:02.661Z,6.00
2019-06-20T10:14:33.150Z,10.05
2019-06-20T10:17:06.258Z,8.13
2019-06-20T10:19:36.254Z,7.50
2019-06-20T10:22:05.800Z,7.42
2019-06-20T10:24:36.072Z,9.13
2019-06-20T10:27:06.263Z,7.85
2019-06-20T10:29:35.634Z,8.40
2019-06-20T10:32:05.135Z,7.83
2019-06-20T10:34:34.517Z,8.83
2019-06-20T10:37:04.042Z,8.18
2019-06-20T10:39:34.657Z,7.45
2019-06-20T10:42:04.142Z,6.92
2019-06-20T10:44:33.590Z,8.58
2019-06-20T10:47:03.458Z,12.28
2019-06-20T10:49:32.934Z,8.43
2019-06-20T10:52:03.297Z,5.85
2019-06-20T10:54:32.734Z,8.50
2019-06-20T10:57:03.206Z,5.90
2019-06-20T10:59:32.665Z,8.00
2019-06-20T11:02:06.465Z,8.23
2019-06-20T11:04:41.111Z,5.47
2019-06-20T11:07:18.003Z,7.15
2019-06-20T11:09:50.124Z,7.37
2019-06-20T11:12:22.208Z,6.45
2019-06-20T11:14:51.609Z,6.03
2019-06-20T11:17:21.879Z,8.28
2019-06-20T11:19:51.369Z,6.10
2019-06-20T11:22:22.245Z,5.53
2019-06-20T11:24:53.586Z,6.50
2019-06-20T11:27:25.029Z,3.67
2019-06-20T11:29:56.243Z,4.30
2019-06-20T11:32:31.247Z,8.40
2019-06-20T11:35:01.913Z,3.87
2019-06-20T11:37:32.554Z,6.00
2019-06-20T11:40:15.715Z,4.92
2019-06-20T11:42:48.941Z,5.08
2019-06-20T11:45:20.082Z,4.87
2019-06-20T11:47:49.802Z,4.80
2019-06-20T11:50:21.051Z,6.95
2019-06-20T11:52:51.074Z,4.85
2019-06-20T11:55:24.276Z,4.42
2019-06-20T11:57:53.859Z,5.03
2019-06-20T12:00:24.681Z,4.42
2019-06-20T12:02:55.190Z,6.35
2019-06-20T12:05:28.987Z,5.22
2019-06-20T12:08:00.705Z,5.20
2019-06-20T12:10:30.485Z,4.05
2019-06-20T12:13:05.699Z,5.35
2019-06-20T12:15:35.129Z,4.25
2019-06-20T12:18:08.937Z,4.05
2019-06-20T12:20:41.038Z,5.62
2019-06-20T12:23:10.591Z,6.65
2019-06-20T12:25:42.707Z,5.33
2019-06-20T12:28:14.404Z,7.17
2019-06-20T12:30:57.705Z,7.90
2019-06-20T12:33:42.503Z,6.87
2019-06-20T12:36:20.652Z,5.65
2019-06-20T12:39:05.110Z,7.10
2019-06-20T12:41:47.526Z,5.47
2019-06-20T12:44:18.998Z,8.68
2019-06-20T12:46:53.478Z,8.33
2019-06-20T12:49:25.829Z,9.70
2019-06-20T12:51:58.762Z,9.05
2019-06-20T12:54:31.012Z,8.55
2019-06-20T12:57:01.054Z,9.55
2019-06-20T12:59:30.472Z,12.80
2019-06-20T13:02:01.514Z,6.50
2019-06-20T13:04:31.541Z,6.97
2019-06-20T13:07:01.023Z,11.15
2019-06-20T13:09:32.094Z,8.98
2019-06-20T13:12:03.334Z,5.62
2019-06-20T13:14:32.829Z,10.72
2019-06-20T13:17:06.870Z,9.50
2019-06-20T13:19:38.603Z,8.83
2019-06-20T13:22:10.189Z,8.28
2019-06-20T13:24:41.051Z,7.60
2019-06-20T13:27:14.178Z,8.38
2019-06-20T13:29:45.278Z,7.80
2019-06-20T13:32:16.029Z,10.90
2019-06-20T13:34:46.931Z,13.90
2019-06-20T13:37:18.649Z,6.97
2019-06-20T13:39:50.161Z,7.90
2019-06-20T13:42:19.642Z,4.33
2019-06-20T13:44:50.702Z,5.30
2019-06-20T13:47:21.224Z,6.60
2019-06-20T13:49:50.983Z,5.97
2019-06-20T13:52:23.086Z,4.72
2019-06-20T13:54:53.787Z,6.72
2019-06-20T13:57:25.241Z,4.35
2019-06-20T13:59:56.826Z,6.62
2019-06-20T14:02:26.226Z,6.00
2019-06-20T14:05:10.006Z,8.75
2019-06-20T14:07:43.481Z,4.80
2019-06-20T14:10:10.706Z,10.98
2019-06-20T14:12:41.858Z,6.00
2019-06-20T14:15:13.555Z,4.90
2019-06-20T14:17:44.922Z,4.65
2019-06-20T14:20:17.164Z,4.97
2019-06-20T14:22:50.394Z,4.78
2019-06-20T14:28:11.610Z,7.37
2019-06-20T14:30:44.637Z,4.10
2019-06-20T14:33:34.454Z,8.18
2019-06-20T14:36:06.974Z,6.87
2019-06-20T14:38:36.571Z,7.00
2019-06-20T14:41:05.989Z,7.40
2019-06-20T14:43:35.474Z,8.65
2019-06-20T14:46:07.487Z,10.85
2019-06-20T14:48:36.949Z,7.62
2019-06-20T14:51:06.461Z,8.35
2019-06-20T14:53:38.217Z,7.20
2019-06-20T14:56:07.818Z,4.93
2019-06-20T14:58:40.089Z,6.35
2019-06-20T15:01:09.560Z,4.08
2019-06-20T15:03:40.636Z,3.35
2019-06-20T15:06:12.040Z,8.80
2019-06-20T15:08:43.991Z,5.60
2019-06-20T15:11:14.487Z,4.75
2019-06-20T15:13:44.450Z,5.87
2019-06-20T15:16:15.173Z,3.98
2019-06-20T15:18:47.951Z,8.93
2019-06-20T15:21:17.763Z,5.55
2019-06-20T15:23:49.569Z,5.83
2019-06-20T15:26:20.664Z,6.15
2019-06-20T15:28:51.806Z,4.10
2019-06-20T15:31:24.220Z,9.53
2019-06-20T15:33:55.042Z,6.92
2019-06-20T15:36:26.262Z,8.55
2019-06-20T15:38:57.343Z,5.00
2019-06-20T15:41:29.284Z,6.65
2019-06-20T15:43:58.781Z,5.53
2019-06-20T15:46:30.584Z,8.33
2019-06-20T15:49:15.448Z,5.03
2019-06-20T15:51:33.164Z,7.08
2019-06-20T15:54:03.617Z,5.50
2019-06-20T15:56:34.046Z,4.87
2019-06-20T15:59:03.551Z,4.33
2019-06-20T16:01:32.988Z,8.43
2019-06-20T16:04:02.502Z,5.70
2019-06-20T16:06:32.887Z,9.53
2019-06-20T16:09:04.630Z,6.37
2019-06-20T16:11:36.268Z,5.05
2019-06-20T16:14:05.800Z,5.67
2019-06-20T16:16:35.262Z,4.22
2019-06-20T16:19:11.927Z,3.83
2019-06-20T16:21:41.401Z,3.15
2019-06-20T16:24:12.719Z,7.22
2019-06-20T16:26:42.561Z,5.83
2019-06-20T16:29:12.105Z,8.53
2019-06-20T16:31:42.500Z,4.42
2019-06-20T16:34:11.916Z,7.47
2019-06-20T16:36:41.420Z,4.78
2019-06-20T16:39:10.960Z,3.05
2019-06-20T16:41:43.938Z,2.90
2019-06-20T16:44:13.391Z,3.90
2019-06-20T16:46:42.900Z,4.67
2019-06-20T16:49:12.347Z,3.90
2019-06-20T16:51:42.147Z,5.33
2019-06-20T16:54:12.566Z,6.62
2019-06-20T16:56:42.998Z,6.37
2019-06-20T16:59:14.332Z,4.78
2019-06-20T17:01:46.591Z,4.60
2019-06-20T17:04:21.433Z,2.90
2019-06-20T17:06:54.802Z,12.18
2019-06-20T17:09:25.797Z,7.03
2019-06-20T17:11:56.152Z,4.70
2019-06-20T17:14:26.810Z,4.40
2019-06-20T17:16:57.174Z,2.58
2019-06-20T17:19:27.654Z,3.83
2019-06-20T17:21:57.561Z,3.72
2019-06-20T17:24:28.166Z,4.35
2019-06-20T17:26:58.554Z,2.87
2019-06-20T17:29:28.927Z,3.50
2019-06-20T17:31:59.328Z,3.10
2019-06-20T17:34:28.788Z,4.62
2019-06-20T17:36:59.219Z,6.75
2019-06-20T17:39:28.593Z,5.72
2019-06-20T17:41:58.089Z,6.22
2019-06-20T17:44:29.431Z,6.55
2019-06-20T17:46:58.877Z,6.90
2019-06-20T17:49:29.276Z,4.87
2019-06-20T17:51:58.750Z,4.17
2019-06-20T17:54:29.485Z,5.28
2019-06-20T17:57:03.238Z,5.28
2019-06-20T18:02:03.040Z,3.85
2019-06-20T18:04:35.181Z,4.37
2019-06-20T18:07:08.559Z,5.85
2019-06-20T18:09:39.642Z,7.62
2019-06-20T18:14:41.849Z,4.72
2019-06-20T18:17:11.311Z,4.58
2019-06-20T18:19:42.941Z,2.60
2019-06-20T18:22:12.566Z,2.70
2019-06-20T18:24:43.415Z,4.30
2019-06-20T18:27:18.818Z,6.12
2019-06-20T18:29:54.032Z,3.98
2019-06-20T18:32:26.024Z,5.47
2019-06-20T18:35:13.747Z,5.17
2019-06-20T18:37:44.531Z,5.92
2019-06-20T18:40:16.752Z,4.92
2019-06-20T18:42:48.780Z,3.20
2019-06-20T18:45:21.227Z,7.45
2019-06-20T18:47:51.723Z,5.10
2019-06-20T18:50:25.505Z,4.53
2019-06-20T18:52:57.746Z,5.80
2019-06-20T18:55:29.626Z,2.90
2019-06-20T18:58:02.120Z,6.83
2019-06-20T19:00:35.410Z,3.92
2019-06-20T19:03:12.439Z,6.92
2019-06-20T19:05:43.356Z,6.28
2019-06-20T19:08:18.772Z,4.50
2019-06-20T19:10:49.168Z,5.10
2019-06-20T19:13:24.666Z,4.55
2019-06-20T19:15:59.785Z,9.93
2019-06-20T19:18:29.362Z,11.12
2019-06-20T19:20:59.037Z,5.67
2019-06-20T19:23:29.749Z,3.83
2019-06-20T19:26:00.944Z,4.57
2019-06-20T19:28:32.703Z,8.03
2019-06-20T19:31:02.422Z,5.42
2019-06-20T19:33:34.442Z,4.00
2019-06-20T19:36:06.068Z,4.83
2019-06-20T19:38:35.522Z,5.08
2019-06-20T19:41:05.185Z,4.25
2019-06-20T19:43:35.625Z,5.67
2019-06-20T19:46:09.469Z,6.37
2019-06-20T19:48:40.787Z,8.10
2019-06-20T19:51:15.204Z,5.58
2019-06-20T19:53:45.976Z,7.40
2019-06-20T19:56:15.673Z,7.58
2019-06-20T19:58:46.846Z,6.35
2019-06-20T20:01:18.638Z,5.15
2019-06-20T20:03:51.158Z,6.37
2019-06-20T20:06:24.719Z,6.35
2019-06-20T20:08:57.358Z,9.35
2019-06-20T20:11:30.750Z,5.45
2019-06-20T20:14:06.563Z,4.37
2019-06-20T20:16:39.608Z,4.47
2019-06-20T20:19:16.135Z,5.17
2019-06-20T20:21:45.602Z,5.08
2019-06-20T20:24:15.136Z,6.70
2019-06-20T20:26:47.579Z,5.65
2019-06-20T20:29:18.039Z,7.08
2019-06-20T20:31:48.994Z,23.45
2019-06-20T20:34:18.458Z,6.70
2019-06-20T20:36:49.521Z,7.55
2019-06-20T20:39:19.040Z,6.20
2019-06-20T20:41:50.083Z,7.92
2019-06-20T20:44:19.702Z,6.58
2019-06-20T20:46:49.160Z,3.92
2019-06-20T20:49:18.605Z,7.78
2019-06-20T20:51:55.007Z,9.03
2019-06-20T20:54:25.355Z,9.53
2019-06-20T20:56:55.817Z,4.42
2019-06-20T20:59:25.326Z,3.83
2019-06-20T21:01:54.775Z,6.72
2019-06-20T21:04:24.229Z,7.30
2019-06-20T21:06:53.742Z,4.15
2019-06-20T21:09:23.183Z,5.95
2019-06-20T21:11:53.598Z,9.80
2019-06-20T21:14:23.013Z,7.15
2019-06-20T21:16:53.925Z,5.20
2019-06-20T21:19:23.449Z,9.90
2019-06-20T21:21:52.941Z,4.78
2019-06-20T21:24:22.373Z,7.70
2019-06-20T21:26:52.729Z,7.35
2019-06-20T21:29:22.093Z,7.90
2019-06-20T21:31:51.521Z,7.42
2019-06-20T21:34:20.948Z,3.37
2019-06-20T21:36:50.388Z,6.22
2019-06-20T21:39:21.370Z,12.47
2019-06-20T21:41:50.842Z,11.35
2019-06-20T21:44:20.273Z,9.45
2019-06-20T21:46:49.756Z,6.00
2019-06-20T21:49:19.128Z,6.20
2019-06-20T21:51:48.559Z,5.58
2019-06-20T21:54:18.909Z,5.67
2019-06-20T21:56:49.261Z,5.53
2019-06-20T21:59:18.739Z,8.00
2019-06-20T22:01:49.063Z,7.70
2019-06-20T22:04:19.490Z,6.10
2019-06-20T22:06:48.910Z,5.62
2019-06-20T22:09:18.354Z,6.60
2019-06-20T22:11:48.024Z,5.97
2019-06-20T22:14:19.687Z,4.80
2019-06-20T22:16:49.126Z,6.78
2019-06-20T22:19:19.462Z,3.47
2019-06-20T22:21:49.822Z,4.87
2019-06-20T22:24:19.327Z,7.60
2019-06-20T22:26:49.209Z,7.12
2019-06-20T22:29:18.656Z,5.25
2019-06-20T22:31:49.952Z,11.80
2019-06-20T22:34:19.468Z,3.60
2019-06-20T22:36:49.877Z,3.10
2019-06-20T22:39:19.326Z,4.78
2019-06-20T22:41:50.272Z,4.30
2019-06-20T22:44:19.657Z,3.72
2019-06-20T22:46:49.041Z,5.72
2019-06-20T22:49:18.466Z,5.33
2019-06-20T22:51:47.901Z,7.42
2019-06-20T22:54:18.639Z,5.05
2019-06-20T22:56:48.122Z,3.22
2019-06-20T22:59:17.703Z,6.72
2019-06-20T23:01:47.229Z,6.25
2019-06-20T23:04:16.685Z,4.42
2019-06-20T23:06:55.883Z,7.22
2019-06-20T23:09:17.260Z,5.50
2019-06-20T23:11:46.717Z,5.03
2019-06-20T23:14:16.194Z,7.08
2019-06-20T23:16:48.690Z,5.78
2019-06-20T23:19:21.300Z,5.83
2019-06-20T23:21:50.732Z,6.08
2019-06-20T23:24:20.684Z,6.30
2019-06-20T23:26:50.141Z,5.70
2019-06-20T23:29:22.512Z,6.62
2019-06-20T23:31:54.089Z,6.20
2019-06-20T23:34:23.673Z,5.83
2019-06-20T23:36:53.282Z,5.78
2019-06-20T23:39:23.650Z,4.65
2019-06-20T23:41:54.992Z,6.12
2019-06-20T23:44:25.393Z,8.23
2019-06-20T23:46:54.870Z,11.93
2019-06-20T23:49:24.327Z,10.05
2019-06-20T23:51:56.342Z,13.03
2019-06-20T23:54:25.805Z,10.23
2019-06-20T23:56:55.212Z,12.45
2019-06-20T23:59:24.664Z,18.45
